Terminal Aerodrome Forecast
Issued by NWS

Home | Current Version | Previous Version | Text Only | Print | Product List | Glossary On
Versions: 1 2 3 4 5 6 7 8 9 10 11 12 13 14 15 16 17 18 19 20 21
000
FTUS42 KTBW 242300
TAFPGD
TAF
KPGD 242327Z 2500/2524 19011KT P6SM VCTS SCT020CB BKN060
      TEMPO 2501/2504 4SM TSRA SCT010 BKN020CB
     FM250400 30008KT P6SM VCSH SCT010 BKN020 OVC060
     FM250800 33008KT P6SM SCT015 BKN020
     FM251500 36005KT P6SM SCT025 BKN060=

USA.gov is the U.S. government's official web portal to all federal, state and local government web resources and services.